createdAt,value
2022-09-04T00:04:46.075Z,99552.89
2022-09-04T00:14:21.363Z,99558.14
2022-09-04T00:23:53.733Z,99571.70
2022-09-04T00:33:29.536Z,99583.92
2022-09-04T00:43:03.495Z,99589.55
2022-09-04T00:52:36.897Z,99592.64
2022-09-04T01:02:09.502Z,99597.34
2022-09-04T01:11:45.169Z,99607.89
2022-09-04T01:21:16.839Z,99616.14
2022-09-04T01:30:51.204Z,99624.58
2022-09-04T01:40:25.803Z,99627.59
2022-09-04T01:49:58.869Z,99619.26
2022-09-04T01:59:33.297Z,99619.01
2022-09-04T02:09:07.726Z,99627.94
2022-09-04T02:18:41.773Z,99639.25
2022-09-04T02:28:15.823Z,99642.82
2022-09-04T02:37:51.725Z,99646.56
2022-09-04T02:47:24.243Z,99638.23
2022-09-04T02:56:58.664Z,99647.80
2022-09-04T03:06:33.337Z,99651.51
2022-09-04T03:16:09.740Z,99650.38
2022-09-04T03:25:44.239Z,99654.05
2022-09-04T03:35:16.777Z,99647.53
2022-09-04T03:44:52.602Z,99658.36
2022-09-04T03:54:25.995Z,99660.13
2022-09-04T04:03:59.239Z,99675.56
2022-09-04T04:13:33.736Z,99681.07
2022-09-04T04:23:07.825Z,99679.58
2022-09-04T04:32:41.984Z,99694.55
2022-09-04T04:42:18.264Z,99704.50
2022-09-04T04:51:52.160Z,99720.28
2022-09-04T05:01:24.837Z,99731.81
2022-09-04T05:11:00.323Z,99738.06
2022-09-04T05:20:33.090Z,99753.24
2022-09-04T05:30:07.163Z,99766.38
2022-09-04T05:39:41.009Z,99790.05
2022-09-04T05:49:16.972Z,99792.50
2022-09-04T05:58:51.483Z,99798.97
2022-09-04T06:08:28.602Z,99812.94
2022-09-04T06:17:59.545Z,99825.30
2022-09-04T06:27:35.370Z,99838.81
2022-09-04T06:37:06.543Z,99843.69
2022-09-04T06:46:40.922Z,99854.86
2022-09-04T06:56:17.138Z,99858.00
2022-09-04T07:05:50.051Z,99868.14
2022-09-04T07:15:26.103Z,99883.80
2022-09-04T07:24:58.526Z,99894.53
2022-09-04T07:34:33.024Z,99902.61
2022-09-04T07:35:35.483Z,99895.72
2022-09-04T07:36:38.067Z,99902.18
2022-09-04T07:37:42.063Z,99898.19
2022-09-04T07:38:44.471Z,99901.11
2022-09-04T07:39:48.694Z,99902.11
2022-09-04T07:40:50.929Z,99901.60
2022-09-04T07:41:53.357Z,99894.45
2022-09-04T07:42:57.444Z,99901.27
2022-09-04T07:43:59.792Z,99897.88
2022-09-04T07:45:02.209Z,99897.69
2022-09-04T07:46:06.358Z,99900.77
2022-09-04T07:47:08.602Z,99902.58
2022-09-04T07:48:11.050Z,99902.42
2022-09-04T07:49:15.106Z,99904.02
2022-09-04T07:50:17.422Z,99904.78
2022-09-04T07:51:21.455Z,99908.92
2022-09-04T07:52:23.761Z,99907.63
2022-09-04T07:53:27.891Z,99916.30
2022-09-04T07:54:30.146Z,99913.51
2022-09-04T07:55:32.566Z,99913.67
2022-09-04T07:56:36.611Z,99914.69
2022-09-04T07:57:38.928Z,99912.58
2022-09-04T07:58:41.377Z,99922.13
2022-09-04T07:59:45.373Z,99927.64
2022-09-04T08:00:47.697Z,99926.41
2022-09-04T08:01:50.222Z,99931.17
2022-09-04T08:02:54.279Z,99935.70
2022-09-04T08:03:56.604Z,99934.57
2022-09-04T08:05:00.644Z,99929.37
2022-09-04T08:06:02.919Z,99932.33
2022-09-04T08:07:08.281Z,99931.83
2022-09-04T08:08:07.775Z,99936.11
2022-09-04T08:09:10.242Z,99935.28
2022-09-04T08:10:12.773Z,99931.15
2022-09-04T08:11:15.149Z,99931.77
2022-09-04T08:12:19.196Z,99932.64
2022-09-04T08:13:21.556Z,99930.67
2022-09-04T08:14:24.066Z,99933.20
2022-09-04T08:15:28.167Z,99935.49
2022-09-04T08:16:30.413Z,99935.07
2022-09-04T08:17:32.871Z,99933.31
2022-09-04T08:18:36.903Z,99938.80
2022-09-04T08:19:39.281Z,99942.78
2022-09-04T08:20:41.705Z,99943.34
2022-09-04T08:30:14.299Z,99958.08
2022-09-04T08:31:16.921Z,99958.66
2022-09-04T08:32:19.259Z,99957.03
2022-09-04T08:33:23.340Z,99961.53
2022-09-04T08:34:26.228Z,99961.43
2022-09-04T08:35:28.595Z,99962.30
2022-09-04T08:36:32.684Z,99966.32
2022-09-04T08:46:04.093Z,99982.33
2022-09-04T08:47:08.123Z,99986.22
2022-09-04T08:48:10.450Z,99984.19
2022-09-04T08:49:12.922Z,99988.63
2022-09-04T08:50:15.390Z,99984.05
2022-09-04T08:51:19.481Z,99984.28
2022-09-04T08:52:24.446Z,99985.56
2022-09-04T08:53:28.252Z,99984.50
2022-09-04T08:54:30.624Z,99982.38
2022-09-04T08:55:34.683Z,99983.51
2022-09-04T08:56:38.720Z,99983.41
2022-09-04T08:57:41.021Z,99985.03
2022-09-04T08:58:47.799Z,99985.22
2022-09-04T08:59:47.313Z,99980.51
2022-09-04T09:00:51.377Z,99984.41
2022-09-04T09:01:55.360Z,99990.78
2022-09-04T09:02:59.289Z,99989.89
2022-09-04T09:04:01.639Z,99990.28
2022-09-04T09:05:04.052Z,99984.87
2022-09-04T09:06:06.551Z,99984.13
2022-09-04T09:07:10.607Z,99983.91
2022-09-04T09:08:12.901Z,99987.21
2022-09-04T09:09:15.533Z,99989.48
2022-09-04T09:10:18.027Z,99988.66
2022-09-04T09:11:20.514Z,99987.59
2022-09-04T09:12:24.550Z,99990.66
2022-09-04T09:13:26.868Z,99987.47
2022-09-04T09:14:31.018Z,99998.78
2022-09-04T09:15:33.307Z,99992.48
2022-09-04T09:16:37.449Z,99998.75
2022-09-04T09:17:39.689Z,99993.59
2022-09-04T09:18:42.123Z,99995.80
2022-09-04T09:19:46.213Z,99993.30
2022-09-04T09:20:48.617Z,99990.00
2022-09-04T09:21:51.024Z,99990.63
2022-09-04T09:22:53.518Z,99991.30
2022-09-04T09:23:57.591Z,99992.39
2022-09-04T09:25:00.020Z,99988.46
2022-09-04T09:26:02.452Z,99987.52
2022-09-04T09:27:04.936Z,99989.91
2022-09-04T09:28:08.961Z,99992.84
2022-09-04T09:29:11.500Z,99989.36
2022-09-04T09:30:15.626Z,99992.84
2022-09-04T09:31:19.535Z,99989.90
2022-09-04T09:32:23.365Z,99992.06
2022-09-04T09:33:25.895Z,99990.63
2022-09-04T09:34:28.186Z,99993.30
2022-09-04T09:35:30.661Z,99996.09
2022-09-04T09:36:33.195Z,99993.59
2022-09-04T09:37:35.648Z,99987.05
2022-09-04T09:38:38.107Z,99988.59
2022-09-04T09:39:40.675Z,99989.03
2022-09-04T09:40:43.046Z,99984.20
2022-09-04T09:41:47.133Z,99988.67
2022-09-04T09:42:49.474Z,99987.72
2022-09-04T09:43:52.022Z,99986.00
2022-09-04T09:44:55.516Z,99984.11
2022-09-04T09:45:59.469Z,99981.94
2022-09-04T09:47:01.795Z,99981.46
2022-09-04T09:48:08.709Z,99983.34
2022-09-04T09:49:13.974Z,99975.87
2022-09-04T09:50:12.246Z,99977.34
2022-09-04T09:51:16.203Z,99977.52
2022-09-04T09:52:20.121Z,99981.23
2022-09-04T09:53:22.578Z,99978.30
2022-09-04T09:54:25.966Z,99978.75
2022-09-04T09:55:29.958Z,99984.13
2022-09-04T09:56:33.339Z,99983.77
2022-09-04T09:57:35.743Z,99983.78
2022-09-04T09:58:39.806Z,99993.69
2022-09-04T09:59:42.197Z,99990.36
2022-09-04T10:00:44.679Z,99993.13
2022-09-04T10:01:48.732Z,99989.73
2022-09-04T10:02:51.150Z,99989.30
2022-09-04T10:03:53.522Z,99986.40
2022-09-04T10:04:56.350Z,99987.13
2022-09-04T10:06:00.791Z,99989.12
2022-09-04T10:07:04.607Z,99988.21
2022-09-04T10:08:08.606Z,99990.34
2022-09-04T10:09:12.573Z,99985.84
2022-09-04T10:10:14.901Z,99983.19
2022-09-04T10:11:17.306Z,99988.00
2022-09-04T10:12:21.360Z,99987.24
2022-09-04T10:13:23.714Z,99985.39
2022-09-04T10:14:27.806Z,99981.89
2022-09-04T10:15:30.129Z,99983.34
2022-09-04T10:16:32.643Z,99982.35
2022-09-04T10:17:36.651Z,99986.52
2022-09-04T10:18:39.135Z,99981.64
2022-09-04T10:19:41.619Z,99982.13
2022-09-04T10:20:44.154Z,99981.05
2022-09-04T10:21:46.521Z,99986.64
2022-09-04T10:22:49.229Z,99988.94
2022-09-04T10:23:51.824Z,99984.91
2022-09-04T10:24:54.650Z,99983.45
2022-09-04T10:25:58.596Z,99984.60
2022-09-04T10:27:00.913Z,99982.56
2022-09-04T10:28:04.965Z,99988.02
2022-09-04T10:29:07.328Z,99985.64
2022-09-04T10:30:11.367Z,99985.98
2022-09-04T10:31:13.845Z,99991.00
2022-09-04T10:32:17.737Z,99985.45
2022-09-04T10:33:21.761Z,99986.34
2022-09-04T10:34:25.593Z,99988.31
2022-09-04T10:35:27.893Z,99976.14
2022-09-04T10:36:31.948Z,99978.77
2022-09-04T10:37:34.248Z,99978.20
2022-09-04T10:47:08.713Z,99981.77
2022-09-04T10:48:11.069Z,99984.17
2022-09-04T10:49:15.187Z,99977.95
2022-09-04T10:50:17.795Z,99977.89
2022-09-04T10:51:21.846Z,99971.53
2022-09-04T10:52:25.894Z,99969.89
2022-09-04T10:53:28.553Z,99968.46
2022-09-04T10:54:30.750Z,99969.84
2022-09-04T10:55:33.222Z,99972.41
2022-09-04T10:56:35.688Z,99967.66
2022-09-04T10:57:38.238Z,99973.14
2022-09-04T10:58:40.741Z,99970.98
2022-09-04T10:59:44.845Z,99973.34
2022-09-04T11:00:48.752Z,99969.74
2022-09-04T11:01:51.178Z,99973.35
2022-09-04T11:02:53.539Z,99973.32
2022-09-04T11:03:57.735Z,99975.06
2022-09-04T11:05:00.572Z,99972.25
2022-09-04T11:06:02.988Z,99971.11
2022-09-04T11:07:07.023Z,99973.42
2022-09-04T11:08:09.321Z,99971.66
2022-09-04T11:09:11.797Z,99971.97
2022-09-04T11:10:14.243Z,99968.54
2022-09-04T11:11:16.833Z,99969.95
2022-09-04T11:12:19.256Z,99968.42
2022-09-04T11:13:21.717Z,99970.23
2022-09-04T11:14:24.442Z,99968.01
2022-09-04T11:15:26.867Z,99970.98
2022-09-04T11:16:30.966Z,99967.05
2022-09-04T11:17:34.877Z,99974.70
2022-09-04T11:18:37.181Z,99968.17
2022-09-04T11:19:41.302Z,99970.07
2022-09-04T11:20:43.681Z,99970.20
2022-09-04T11:21:47.867Z,99964.69
2022-09-04T11:22:51.743Z,99960.93
2022-09-04T11:23:55.712Z,99962.84
2022-09-04T11:24:59.210Z,99962.23
2022-09-04T11:26:01.606Z,99960.72
2022-09-04T11:27:08.167Z,99963.21
2022-09-04T11:28:07.951Z,99962.71
2022-09-04T11:29:10.402Z,99963.54
2022-09-04T11:30:14.416Z,99967.84
2022-09-04T11:31:16.849Z,99962.44
2022-09-04T11:32:19.296Z,99961.87
2022-09-04T11:33:23.472Z,99959.47
2022-09-04T11:34:27.299Z,99959.48
2022-09-04T11:35:29.642Z,99961.72
2022-09-04T11:36:32.069Z,99962.06
2022-09-04T11:37:34.443Z,99958.80
2022-09-04T11:38:36.894Z,99962.91
2022-09-04T11:39:39.530Z,99956.55
2022-09-04T11:40:41.867Z,99957.11
2022-09-04T11:41:44.349Z,99951.86
2022-09-04T11:42:48.409Z,99954.47
2022-09-04T11:43:52.361Z,99955.08
2022-09-04T11:44:56.264Z,99956.23
2022-09-04T11:45:59.384Z,99953.79
2022-09-04T11:47:01.033Z,99951.75
2022-09-04T11:48:03.546Z,99951.75
2022-09-04T11:49:07.621Z,99952.25
2022-09-04T11:50:10.007Z,99954.77
2022-09-04T11:51:12.523Z,99948.27
2022-09-04T11:52:14.964Z,99952.61
2022-09-04T11:53:17.532Z,99956.41
2022-09-04T11:54:21.044Z,99952.47
2022-09-04T11:55:24.419Z,99954.59
2022-09-04T11:56:26.879Z,99953.73
2022-09-04T11:57:29.284Z,99953.20
2022-09-04T11:58:33.372Z,99951.55
2022-09-04T11:59:35.820Z,99952.44
2022-09-04T12:00:38.198Z,99949.83
2022-09-04T12:01:45.758Z,99951.30
2022-09-04T12:02:44.650Z,99946.39
2022-09-04T12:03:47.177Z,99949.02
2022-09-04T12:04:49.689Z,99942.48
2022-09-04T12:05:52.194Z,99941.76
2022-09-04T12:06:54.778Z,99948.31
2022-09-04T12:07:57.261Z,99945.34
2022-09-04T12:09:01.342Z,99950.73
2022-09-04T12:10:03.712Z,99946.02
2022-09-04T12:11:06.187Z,99948.02
2022-09-04T12:12:08.660Z,99942.55
2022-09-04T12:13:14.599Z,99944.81
2022-09-04T12:14:15.197Z,99944.73
2022-09-04T12:15:17.568Z,99948.14
2022-09-04T12:16:20.188Z,99943.23
2022-09-04T12:17:22.677Z,99945.77
2022-09-04T12:18:25.125Z,99943.08
2022-09-04T12:19:29.177Z,99942.88
2022-09-04T12:20:31.563Z,99945.86
2022-09-04T12:21:34.247Z,99942.22
2022-09-04T12:22:36.679Z,99948.72
2022-09-04T12:23:40.749Z,99944.45
2022-09-04T12:24:43.059Z,99945.70
2022-09-04T12:25:45.589Z,99949.16
2022-09-04T12:26:51.407Z,99952.66
2022-09-04T12:27:52.078Z,99951.77
2022-09-04T12:28:54.588Z,99950.04
2022-09-04T12:29:57.037Z,99957.30
2022-09-04T12:30:59.503Z,99945.97
2022-09-04T12:32:03.852Z,99949.27
2022-09-04T12:33:08.205Z,99951.63
2022-09-04T12:34:08.665Z,99947.63
2022-09-04T12:35:11.176Z,99962.82
2022-09-04T12:36:13.668Z,99953.70
2022-09-04T12:37:17.771Z,99954.52
2022-09-04T12:38:20.123Z,99953.58
2022-09-04T12:39:24.250Z,99948.03
2022-09-04T12:40:26.624Z,99947.99
2022-09-04T12:41:30.691Z,99948.19
2022-09-04T12:42:33.056Z,99943.52
2022-09-04T12:43:37.139Z,99950.23
2022-09-04T12:44:39.513Z,99948.01
2022-09-04T12:45:42.006Z,99948.03
2022-09-04T12:46:44.509Z,99947.61
2022-09-04T12:47:48.591Z,99947.16
2022-09-04T12:48:51.018Z,99948.89
2022-09-04T12:49:55.107Z,99950.02
2022-09-04T12:50:57.419Z,99952.03
2022-09-04T12:51:59.916Z,99948.94
2022-09-04T12:53:02.399Z,99950.01
2022-09-04T12:54:06.465Z,99952.17
2022-09-04T12:55:08.839Z,99951.94
2022-09-04T12:56:11.299Z,99952.22
2022-09-04T12:57:13.797Z,99948.10
2022-09-04T12:58:16.278Z,99950.63
2022-09-04T12:59:20.366Z,99946.72
2022-09-04T13:00:22.817Z,99945.67
2022-09-04T13:01:25.451Z,99949.93
2022-09-04T13:02:27.954Z,99951.52
2022-09-04T13:03:30.310Z,99949.58
2022-09-04T13:04:32.780Z,99949.41
2022-09-04T13:05:36.910Z,99948.98
2022-09-04T13:06:40.302Z,99951.16
2022-09-04T13:07:43.836Z,99954.78
2022-09-04T13:08:46.000Z,99954.03
2022-09-04T13:09:53.905Z,99958.41
2022-09-04T13:10:55.449Z,99958.34
2022-09-04T13:11:59.464Z,99962.48
2022-09-04T13:13:01.851Z,99960.36
2022-09-04T13:14:06.005Z,99955.00
2022-09-04T13:15:10.967Z,99954.92
2022-09-04T13:16:13.322Z,99958.97
2022-09-04T13:17:15.691Z,99956.98
2022-09-04T13:18:18.181Z,99958.25
2022-09-04T13:19:20.672Z,99959.47
2022-09-04T13:20:23.130Z,99962.13
2022-09-04T13:21:25.702Z,99959.18
2022-09-04T13:22:28.174Z,99961.52
2022-09-04T13:23:35.482Z,99964.52
2022-09-04T13:24:34.665Z,99961.58
2022-09-04T13:25:38.731Z,99960.48
2022-09-04T13:26:42.787Z,99957.75
2022-09-04T13:27:48.946Z,99958.31
2022-09-04T13:28:52.767Z,99954.16
2022-09-04T13:29:59.867Z,99956.98
2022-09-04T13:30:59.026Z,99958.17
2022-09-04T13:32:01.578Z,99955.78
2022-09-04T13:33:03.961Z,99962.22
2022-09-04T13:34:08.106Z,99961.42
2022-09-04T13:35:10.457Z,99962.86
2022-09-04T13:36:12.919Z,99961.70
2022-09-04T13:37:15.476Z,99940.72
2022-09-04T13:38:17.962Z,99958.73
2022-09-04T13:39:22.063Z,99959.67
2022-09-04T13:40:28.317Z,99958.47
2022-09-04T13:41:30.812Z,99957.64
2022-09-04T13:42:33.065Z,99951.69
2022-09-04T13:43:35.607Z,99953.66
2022-09-04T13:44:38.050Z,99955.48
2022-09-04T13:45:42.105Z,99954.52
2022-09-04T13:46:44.596Z,99951.22
2022-09-04T13:47:47.007Z,99950.88
2022-09-04T13:48:49.481Z,99950.24
2022-09-04T13:49:54.320Z,99951.26
2022-09-04T13:50:54.367Z,99952.46
2022-09-04T13:51:56.844Z,99954.50
2022-09-04T13:53:00.302Z,99945.09
2022-09-04T13:54:02.729Z,99947.91
2022-09-04T13:55:06.259Z,99947.63
2022-09-04T13:56:08.723Z,99948.98
2022-09-04T13:57:12.755Z,99948.11
2022-09-04T13:58:15.220Z,99952.70
2022-09-04T13:59:17.694Z,99943.70
2022-09-04T14:00:20.216Z,99944.20
2022-09-04T14:01:23.826Z,99944.09
2022-09-04T14:02:26.023Z,99948.23
2022-09-04T14:03:30.087Z,99949.95
2022-09-04T14:04:32.517Z,99952.02
2022-09-04T14:05:34.917Z,99950.78
2022-09-04T14:06:37.461Z,99948.89
2022-09-04T14:07:44.723Z,99944.98
2022-09-04T14:08:45.552Z,99946.93
2022-09-04T14:09:47.846Z,99950.27
2022-09-04T14:10:50.366Z,99949.97
2022-09-04T14:11:52.912Z,99947.95
2022-09-04T14:12:55.429Z,99947.06
2022-09-04T14:13:57.948Z,99944.35
2022-09-04T14:15:00.456Z,99937.66
2022-09-04T14:16:04.186Z,99942.75
2022-09-04T14:17:06.267Z,99945.42
2022-09-04T14:18:08.819Z,99944.30
2022-09-04T14:19:15.497Z,99949.95
2022-09-04T14:20:18.461Z,99946.39
2022-09-04T14:21:19.148Z,99950.15
2022-09-04T14:22:23.083Z,99947.22
2022-09-04T14:23:26.425Z,99947.27
2022-09-04T14:24:28.811Z,99950.94
2022-09-04T14:25:31.288Z,99948.01
2022-09-04T14:26:35.378Z,99949.25
2022-09-04T14:27:37.731Z,99949.25
2022-09-04T14:28:40.188Z,99948.48
2022-09-04T14:29:44.362Z,99944.50
2022-09-04T14:30:47.782Z,99942.13
2022-09-04T14:31:51.236Z,99943.38
2022-09-04T14:32:56.867Z,99945.08
2022-09-04T14:33:56.097Z,99944.52
2022-09-04T14:35:00.069Z,99949.63
2022-09-04T14:36:02.415Z,99943.66
2022-09-04T14:37:04.888Z,99943.63
2022-09-04T14:38:09.135Z,99947.02
2022-09-04T14:39:13.943Z,99943.75
2022-09-04T14:40:16.232Z,99940.98
2022-09-04T14:41:18.669Z,99951.26
2022-09-04T14:42:21.143Z,99943.48
2022-09-04T14:43:25.356Z,99946.42
2022-09-04T14:44:27.740Z,99944.78
2022-09-04T14:45:30.235Z,99944.83
2022-09-04T14:46:32.831Z,99944.75
2022-09-04T14:47:35.320Z,99943.11
2022-09-04T14:48:37.842Z,99941.04
2022-09-04T14:49:41.815Z,99941.09
2022-09-04T14:50:45.838Z,99939.48
2022-09-04T14:51:50.071Z,99943.16
2022-09-04T14:52:54.052Z,99944.97
2022-09-04T14:53:58.026Z,99947.99
2022-09-04T14:55:02.102Z,99944.02
2022-09-04T14:56:04.388Z,99942.80
2022-09-04T14:57:09.513Z,99941.77
2022-09-04T14:58:11.795Z,99943.62
2022-09-04T14:59:14.276Z,99942.62
2022-09-04T15:00:16.790Z,99940.75
2022-09-04T15:01:19.275Z,99949.20
2022-09-04T15:02:24.366Z,99945.74
2022-09-04T15:03:26.958Z,99947.20
2022-09-04T15:04:32.576Z,99944.69
2022-09-04T15:05:34.223Z,99942.52
2022-09-04T15:06:49.493Z,99942.59
2022-09-04T15:07:42.383Z,99943.67
2022-09-04T15:08:47.522Z,99940.48
2022-09-04T15:09:52.427Z,99941.80
2022-09-04T15:10:57.562Z,99939.41
2022-09-04T15:12:20.987Z,99943.73
2022-09-04T15:13:04.921Z,99953.48
2022-09-04T15:14:07.263Z,99946.58
2022-09-04T15:15:10.715Z,99947.47
2022-09-04T15:24:43.312Z,99943.00
2022-09-04T15:26:05.007Z,99941.62
2022-09-04T15:26:52.870Z,99942.89
2022-09-04T15:27:56.322Z,99944.92
2022-09-04T15:29:00.324Z,99946.80
2022-09-04T15:30:05.307Z,99944.23
2022-09-04T15:31:14.831Z,99943.86
2022-09-04T15:32:14.974Z,99948.48
2022-09-04T15:33:21.743Z,99943.14
2022-09-04T15:34:25.088Z,99940.89
2022-09-04T15:35:32.924Z,99940.18
2022-09-04T15:36:32.344Z,99941.66
2022-09-04T15:37:34.783Z,99947.42
2022-09-04T15:38:39.783Z,99941.98
2022-09-04T15:39:42.224Z,99949.67
2022-09-04T15:40:59.845Z,99939.59
2022-09-04T15:41:48.719Z,99944.70
2022-09-04T15:42:51.143Z,99940.41
2022-09-04T15:43:53.634Z,99935.69
2022-09-04T15:44:56.130Z,99936.81
2022-09-04T15:45:58.592Z,99938.33
2022-09-04T15:47:02.095Z,99934.39
2022-09-04T15:48:04.579Z,99927.73
2022-09-04T15:49:07.014Z,99933.55
2022-09-04T15:50:11.182Z,99934.50
2022-09-04T15:51:15.162Z,99934.88
2022-09-04T15:52:18.636Z,99935.75
2022-09-04T15:53:26.405Z,99933.87
2022-09-04T15:54:25.001Z,99934.36
2022-09-04T15:55:27.502Z,99943.61
2022-09-04T15:56:29.992Z,99934.47
2022-09-04T15:57:32.515Z,99934.23
2022-09-04T15:58:35.960Z,99933.16
2022-09-04T15:59:39.427Z,99930.71
2022-09-04T16:00:41.865Z,99936.15
2022-09-04T16:01:46.048Z,99920.95
2022-09-04T16:02:50.057Z,99934.44
2022-09-04T16:03:53.960Z,99931.90
2022-09-04T16:04:57.354Z,99932.16
2022-09-04T16:06:01.386Z,99932.92
2022-09-04T16:07:04.746Z,99933.86
2022-09-04T16:08:07.302Z,99936.06
2022-09-04T16:09:10.053Z,99932.52
2022-09-04T16:10:13.739Z,99936.38
2022-09-04T16:11:17.212Z,99931.45
2022-09-04T16:12:21.273Z,99931.98
2022-09-04T16:13:25.238Z,99930.99
2022-09-04T16:14:27.658Z,99928.53
2022-09-04T16:15:31.867Z,99931.45
2022-09-04T16:16:35.122Z,99930.55
2022-09-04T16:17:40.040Z,99929.76
2022-09-04T16:18:43.957Z,99931.36
2022-09-04T16:19:46.335Z,99935.44
2022-09-04T16:20:50.441Z,99935.86
2022-09-04T16:21:52.816Z,99936.38
2022-09-04T16:22:55.343Z,99933.19
2022-09-04T16:23:58.857Z,99929.59
2022-09-04T16:25:02.922Z,99935.00
2022-09-04T16:26:06.865Z,99929.89
2022-09-04T16:27:09.261Z,99933.63
2022-09-04T16:28:11.794Z,99929.23
2022-09-04T16:29:15.289Z,99931.33
2022-09-04T16:30:17.612Z,99930.20
2022-09-04T16:31:20.230Z,99928.27
2022-09-04T16:32:23.594Z,99930.89
2022-09-04T16:33:27.948Z,99908.64
2022-09-04T16:34:29.911Z,99924.05
2022-09-04T16:35:33.990Z,99923.94
2022-09-04T16:36:36.273Z,99925.91
2022-09-04T16:37:40.438Z,99912.62
2022-09-04T16:38:42.791Z,99930.48
2022-09-04T16:39:47.957Z,99929.33
2022-09-04T16:40:52.862Z,99926.05
2022-09-04T16:41:57.763Z,99926.87
2022-09-04T16:43:00.091Z,99910.39
2022-09-04T16:44:03.545Z,99923.77
2022-09-04T16:45:06.004Z,99920.03
2022-09-04T16:46:08.486Z,99919.70
2022-09-04T16:47:12.632Z,99919.22
2022-09-04T16:48:33.600Z,99917.94
2022-09-04T16:49:20.011Z,99921.83
2022-09-04T16:50:22.452Z,99919.68
2022-09-04T16:51:37.305Z,99921.38
2022-09-04T16:52:28.381Z,99918.21
2022-09-04T16:53:30.844Z,99918.20
2022-09-04T16:54:33.305Z,99919.84
2022-09-04T16:55:35.819Z,99912.41
2022-09-04T16:56:38.550Z,99916.34
2022-09-04T16:57:41.097Z,99911.59
2022-09-04T16:58:43.611Z,99915.64
2022-09-04T16:59:46.436Z,99916.61
2022-09-04T17:00:50.256Z,99914.96
2022-09-04T17:01:54.349Z,99919.58
2022-09-04T17:02:57.720Z,99916.28
2022-09-04T17:04:13.035Z,99914.63
2022-09-04T17:05:03.637Z,99914.09
2022-09-04T17:06:06.149Z,99907.77
2022-09-04T17:07:08.616Z,99912.30
2022-09-04T17:08:12.111Z,99909.97
2022-09-04T17:09:21.434Z,99910.27
2022-09-04T17:10:17.986Z,99910.92
2022-09-04T17:11:21.473Z,99907.53
2022-09-04T17:12:25.528Z,99908.27
2022-09-04T17:13:28.206Z,99911.66
2022-09-04T17:14:30.572Z,99904.64
2022-09-04T17:15:34.448Z,99913.69
2022-09-04T17:16:36.725Z,99907.48
2022-09-04T17:17:39.171Z,99908.77
2022-09-04T17:18:44.251Z,99907.38
2022-09-04T17:19:48.204Z,99906.85
2022-09-04T17:21:39.762Z,99904.69
2022-09-04T17:24:17.496Z,99906.23
2022-09-04T17:25:24.411Z,99904.73
2022-09-04T17:28:21.667Z,99908.83
2022-09-04T17:28:42.589Z,99909.96
2022-09-04T17:29:05.421Z,99912.30
2022-09-04T17:29:06.294Z,99908.03
2022-09-04T17:29:06.397Z,99912.09
2022-09-04T17:29:37.093Z,99905.49
2022-09-04T17:30:25.446Z,99907.04
2022-09-04T17:31:23.384Z,99905.86
2022-09-04T17:32:33.684Z,99904.95
2022-09-04T17:34:50.068Z,99907.84
2022-09-04T17:39:01.162Z,99906.97
2022-09-04T17:39:47.745Z,99907.70
2022-09-04T17:40:44.705Z,99903.53
2022-09-04T17:40:45.046Z,99903.75
2022-09-04T17:40:45.901Z,99903.52
2022-09-04T17:40:46.233Z,99899.05
2022-09-04T17:41:35.536Z,99898.31
2022-09-04T17:42:03.204Z,99899.11
2022-09-04T17:42:57.108Z,99902.38
2022-09-04T17:43:54.623Z,99896.83
2022-09-04T17:44:58.684Z,99900.86
2022-09-04T17:46:01.061Z,99899.30
2022-09-04T17:47:03.522Z,99897.39
2022-09-04T17:48:05.999Z,99902.39
2022-09-04T17:49:11.109Z,99903.72
2022-09-04T17:50:13.374Z,99901.31
2022-09-04T17:51:15.828Z,99901.31
2022-09-04T17:52:18.267Z,99900.95
2022-09-04T17:53:33.951Z,99903.73
2022-09-04T17:54:27.003Z,99900.60
2022-09-04T17:55:27.338Z,99897.91
2022-09-04T18:04:57.121Z,99910.33
2022-09-04T18:14:32.064Z,99919.20
2022-09-04T18:15:35.140Z,99920.00
2022-09-04T18:16:37.067Z,99919.48
2022-09-04T18:17:39.441Z,99924.67
2022-09-04T18:27:10.985Z,99928.45
2022-09-04T18:37:13.758Z,99932.53
2022-09-04T18:50:26.269Z,99935.83
2022-09-04T18:55:51.342Z,99937.91
2022-09-04T19:05:27.226Z,99954.04
2022-09-04T19:15:01.106Z,99961.05
2022-09-04T19:24:34.283Z,99961.61
2022-09-04T19:34:07.608Z,99961.59
2022-09-04T19:46:10.705Z,99956.64
2022-09-04T19:53:20.613Z,99960.81
2022-09-04T20:02:50.035Z,99964.20
2022-09-04T20:12:25.742Z,99969.49
2022-09-04T20:21:58.150Z,99971.05
2022-09-04T20:31:35.727Z,99967.13
2022-09-04T20:41:05.623Z,99964.70
2022-09-04T20:52:48.248Z,99962.24
2022-09-04T21:03:16.498Z,99968.03
2022-09-04T21:09:54.833Z,99989.40
2022-09-04T21:19:28.447Z,99987.54
2022-09-04T21:28:54.951Z,99990.83
2022-09-04T21:38:29.022Z,100013.53
2022-09-04T21:48:03.304Z,100014.89
2022-09-04T22:01:30.557Z,100026.42
2022-09-04T22:08:41.254Z,100023.82
2022-09-04T22:16:45.793Z,100023.38
2022-09-04T22:17:47.969Z,100025.71
2022-09-04T22:27:21.342Z,100021.58
2022-09-04T22:37:00.643Z,100026.05
2022-09-04T22:46:30.875Z,100026.24
2022-09-04T22:56:22.673Z,100018.73
2022-09-04T23:05:39.914Z,100034.45
2022-09-04T23:15:10.118Z,100041.37
2022-09-04T23:26:41.073Z,100044.09
2022-09-04T23:34:18.177Z,100040.42
2022-09-04T23:43:53.995Z,100040.85
2022-09-04T23:53:26.095Z,100034.55
